Time,TemperatureF,DewpointF,PressureIn,WindDirection,WindDirectionDegrees,WindSpeedMPH,WindSpeedGustMPH,Humidity,HourlyPrecipIn,Conditions,Clouds,dailyrainin,SoftwareType,DateUTC
2013-08-21 00:04:00,69.3,61.0,29.35,South,170,0.0,0.0,75,0.00,CLR,,0.00,WeatherDisplay:10.37,2013-08-21 05:04:00,
2013-08-21 00:09:00,69.3,61.0,29.35,South,170,0.0,0.0,75,0.00,CLR,,0.00,WeatherDisplay:10.37,2013-08-21 05:09:00,
2013-08-21 00:14:00,69.3,61.0,29.35,South,170,0.0,0.0,75,0.00,CLR,,0.00,WeatherDisplay:10.37,2013-08-21 05:14:00,
2013-08-21 00:19:00,69.4,61.2,29.35,South,170,0.0,0.0,75,0.00,CLR,,0.00,WeatherDisplay:10.37,2013-08-21 05:19:00,
2013-08-21 00:24:00,69.6,61.3,29.35,South,170,0.0,0.0,75,0.00,CLR,,0.00,WeatherDisplay:10.37,2013-08-21 05:24:00,
2013-08-21 00:29:00,69.4,61.2,29.35,South,170,0.0,0.0,75,0.00,CLR,,0.00,WeatherDisplay:10.37,2013-08-21 05:29:00,
2013-08-21 00:34:00,69.4,61.2,29.35,South,170,0.0,0.0,75,0.00,CLR,,0.00,WeatherDisplay:10.37,2013-08-21 05:34:00,
2013-08-21 00:39:00,69.4,61.2,29.35,South,170,0.0,0.0,75,0.00,CLR,,0.00,WeatherDisplay:10.37,2013-08-21 05:39:00,
2013-08-21 00:44:00,69.1,60.8,29.35,South,170,0.0,0.0,75,0.00,CLR,,0.00,WeatherDisplay:10.37,2013-08-21 05:44:00,
2013-08-21 00:49:00,68.7,60.5,29.35,South,170,0.0,0.0,75,0.00,CLR,,0.00,WeatherDisplay:10.37,2013-08-21 05:49:00,
2013-08-21 00:54:00,68.5,60.3,29.35,South,170,0.0,0.0,75,0.00,CLR,,0.00,WeatherDisplay:10.37,2013-08-21 05:54:00,
2013-08-21 00:59:00,68.4,60.1,29.35,South,170,0.0,0.0,75,0.00,CLR,,0.00,WeatherDisplay:10.37,2013-08-21 05:59:00,
2013-08-21 01:04:00,68.4,60.5,29.35,South,170,0.0,0.0,76,0.00,CLR,,0.00,WeatherDisplay:10.37,2013-08-21 06:04:00,
2013-08-21 01:09:00,68.2,60.3,29.35,South,170,0.0,0.0,76,0.00,CLR,,0.00,WeatherDisplay:10.37,2013-08-21 06:09:00,
2013-08-21 01:14:00,68.0,60.2,29.35,South,170,0.0,0.0,76,0.00,CLR,,0.00,WeatherDisplay:10.37,2013-08-21 06:14:00,
2013-08-21 01:19:00,68.2,60.3,29.35,South,170,0.0,0.0,76,0.00,CLR,,0.00,WeatherDisplay:10.37,2013-08-21 06:19:00,
2013-08-21 01:24:00,68.4,60.5,29.35,South,170,0.0,0.0,76,0.00,CLR,,0.00,WeatherDisplay:10.37,2013-08-21 06:24:00,
2013-08-21 01:29:00,68.7,61.2,29.35,South,170,0.0,0.0,77,0.00,CLR,,0.00,WeatherDisplay:10.37,2013-08-21 06:29:00,
2013-08-21 01:34:00,68.7,61.2,29.35,South,170,0.0,0.0,77,0.00,CLR,,0.00,WeatherDisplay:10.37,2013-08-21 06:34:00,
2013-08-21 01:39:00,68.5,61.0,29.35,South,170,0.0,0.0,77,0.00,CLR,,0.00,WeatherDisplay:10.37,2013-08-21 06:39:00,
2013-08-21 01:44:00,68.2,60.3,29.35,South,170,0.0,0.0,76,0.00,CLR,,0.00,WeatherDisplay:10.37,2013-08-21 06:44:00,
2013-08-21 01:49:00,68.0,60.2,29.35,South,170,0.0,0.0,76,0.00,CLR,,0.00,WeatherDisplay:10.37,2013-08-21 06:49:00,
2013-08-21 01:54:00,67.6,60.2,29.35,South,170,0.0,0.0,77,0.00,CLR,,0.00,WeatherDisplay:10.37,2013-08-21 06:54:00,
2013-08-21 01:59:00,68.0,60.2,29.35,South,170,0.0,0.0,76,0.00,CLR,,0.00,WeatherDisplay:10.37,2013-08-21 06:59:00,
2013-08-21 02:04:00,67.6,60.2,29.35,South,170,0.0,0.0,77,0.00,CLR,,0.00,WeatherDisplay:10.37,2013-08-21 07:04:00,
2013-08-21 02:09:00,67.8,60.3,29.35,South,170,0.0,0.0,77,0.00,CLR,,0.00,WeatherDisplay:10.37,2013-08-21 07:09:00,
2013-08-21 02:14:00,67.6,60.5,29.35,South,170,0.0,0.0,78,0.00,CLR,,0.00,WeatherDisplay:10.37,2013-08-21 07:14:00,
2013-08-21 02:19:00,67.6,60.5,29.35,South,170,0.0,0.0,78,0.00,CLR,,0.00,WeatherDisplay:10.37,2013-08-21 07:19:00,
2013-08-21 02:24:00,67.6,60.5,29.35,South,170,0.0,0.0,78,0.00,CLR,,0.00,WeatherDisplay:10.37,2013-08-21 07:24:00,
2013-08-21 02:29:00,67.6,60.5,29.35,South,170,0.0,0.0,78,0.00,CLR,,0.00,WeatherDisplay:10.37,2013-08-21 07:29:00,
2013-08-21 02:34:00,67.6,60.5,29.35,South,170,0.0,0.0,78,0.00,CLR,,0.00,WeatherDisplay:10.37,2013-08-21 07:34:00,
2013-08-21 02:39:00,67.8,61.1,29.35,South,170,0.0,0.0,79,0.00,CLR,,0.00,WeatherDisplay:10.37,2013-08-21 07:39:00,
2013-08-21 02:44:00,68.0,60.9,29.35,South,170,0.0,0.0,78,0.00,CLR,,0.00,WeatherDisplay:10.37,2013-08-21 07:44:00,
2013-08-21 02:49:00,67.8,61.1,29.35,South,170,0.0,0.0,79,0.00,CLR,,0.00,WeatherDisplay:10.37,2013-08-21 07:49:00,
2013-08-21 02:54:00,67.6,60.9,29.35,South,170,0.0,0.0,79,0.00,CLR,,0.00,WeatherDisplay:10.37,2013-08-21 07:54:00,
2013-08-21 02:59:00,67.5,60.7,29.35,South,170,0.0,0.0,79,0.00,CLR,,0.00,WeatherDisplay:10.37,2013-08-21 07:59:00,
2013-08-21 03:04:00,67.5,60.7,29.35,South,170,0.0,0.0,79,0.00,CLR,,0.00,WeatherDisplay:10.37,2013-08-21 08:04:00,
2013-08-21 03:09:00,67.5,60.7,29.35,South,170,0.0,0.0,79,0.00,CLR,,0.00,WeatherDisplay:10.37,2013-08-21 08:09:00,
2013-08-21 03:14:00,67.3,60.5,29.35,South,170,0.0,0.0,79,0.00,CLR,,0.00,WeatherDisplay:10.37,2013-08-21 08:14:00,
2013-08-21 03:19:00,67.3,60.5,29.35,South,170,0.0,0.0,79,0.00,CLR,,0.00,WeatherDisplay:10.37,2013-08-21 08:19:00,
2013-08-21 03:24:00,67.3,60.5,29.35,South,170,0.0,0.0,79,0.00,CLR,,0.00,WeatherDisplay:10.37,2013-08-21 08:24:00,
2013-08-21 03:29:00,67.1,60.4,29.35,South,170,0.0,0.0,79,0.00,CLR,,0.00,WeatherDisplay:10.37,2013-08-21 08:29:00,
2013-08-21 03:34:00,67.1,60.4,29.35,South,170,0.0,0.0,79,0.00,CLR,,0.00,WeatherDisplay:10.37,2013-08-21 08:34:00,
2013-08-21 03:39:00,67.1,60.4,29.35,South,170,0.0,0.0,79,0.00,CLR,,0.00,WeatherDisplay:10.37,2013-08-21 08:39:00,
2013-08-21 03:49:00,67.1,60.4,29.35,South,170,0.0,0.0,79,0.00,CLR,,0.00,WeatherDisplay:10.37,2013-08-21 08:49:00,
2013-08-21 03:54:00,67.1,60.4,29.35,South,170,0.0,0.0,79,0.00,CLR,,0.00,WeatherDisplay:10.37,2013-08-21 08:54:00,
2013-08-21 03:59:00,67.1,60.4,29.35,South,170,1.0,1.0,79,0.00,CLR,,0.00,WeatherDisplay:10.37,2013-08-21 08:59:00,
2013-08-21 04:04:00,67.1,60.4,29.35,South,170,1.0,1.0,79,0.00,CLR,,0.00,WeatherDisplay:10.37,2013-08-21 09:04:00,
2013-08-21 04:09:00,67.1,60.4,29.35,South,170,1.0,1.0,79,0.00,CLR,,0.00,WeatherDisplay:10.37,2013-08-21 09:09:00,
2013-08-21 04:14:00,67.5,61.1,29.35,South,170,1.0,2.0,80,0.00,CLR,,0.00,WeatherDisplay:10.37,2013-08-21 09:14:00,
2013-08-21 04:19:00,67.6,61.2,29.35,South,170,1.0,2.0,80,0.00,CLR,,0.00,WeatherDisplay:10.37,2013-08-21 09:19:00,
2013-08-21 04:24:00,67.8,61.4,29.35,South,170,1.0,2.0,80,0.00,CLR,,0.00,WeatherDisplay:10.37,2013-08-21 09:24:00,
2013-08-21 04:29:00,67.8,61.4,29.35,South,170,1.0,2.0,80,0.00,CLR,,0.00,WeatherDisplay:10.37,2013-08-21 09:29:00,
2013-08-21 04:34:00,68.0,61.2,29.35,South,170,1.0,1.0,79,0.00,CLR,,0.00,WeatherDisplay:10.37,2013-08-21 09:34:00,
2013-08-21 04:39:00,67.6,61.2,29.35,South,170,1.0,1.0,80,0.00,CLR,,0.00,WeatherDisplay:10.37,2013-08-21 09:39:00,
2013-08-21 04:44:00,67.6,61.2,29.35,South,170,1.0,1.0,80,0.00,CLR,,0.00,WeatherDisplay:10.37,2013-08-21 09:44:00,
2013-08-21 04:49:00,67.1,60.4,29.35,South,170,1.0,1.0,79,0.00,CLR,,0.00,WeatherDisplay:10.37,2013-08-21 09:49:00,
2013-08-21 04:54:00,67.1,60.4,29.35,South,170,1.0,1.0,79,0.00,CLR,,0.00,WeatherDisplay:10.37,2013-08-21 09:54:00,
2013-08-21 04:59:00,66.9,60.2,29.35,South,170,1.0,1.0,79,0.00,CLR,,0.00,WeatherDisplay:10.37,2013-08-21 09:59:00,
2013-08-21 05:04:00,66.7,60.0,29.35,South,170,1.0,1.0,79,0.00,CLR,,0.00,WeatherDisplay:10.37,2013-08-21 10:04:00,
2013-08-21 05:09:00,66.7,60.0,29.35,South,170,1.0,1.0,79,0.00,CLR,,0.00,WeatherDisplay:10.37,2013-08-21 10:09:00,
2013-08-21 05:14:00,66.9,60.2,29.35,South,170,1.0,1.0,79,0.00,CLR,,0.00,WeatherDisplay:10.37,2013-08-21 10:14:00,
2013-08-21 05:19:00,66.9,60.2,29.35,South,170,1.0,1.0,79,0.00,CLR,,0.00,WeatherDisplay:10.37,2013-08-21 10:19:00,
2013-08-21 05:24:00,66.9,60.2,29.35,South,170,1.0,1.0,79,0.00,CLR,,0.00,WeatherDisplay:10.37,2013-08-21 10:24:00,
2013-08-21 05:29:00,66.7,60.0,29.35,South,170,0.0,1.0,79,0.00,CLR,,0.00,WeatherDisplay:10.37,2013-08-21 10:29:00,
2013-08-21 05:34:00,66.9,60.5,29.35,South,170,0.0,0.0,80,0.00,CLR,,0.00,WeatherDisplay:10.37,2013-08-21 10:34:00,
2013-08-21 05:39:00,67.1,60.7,29.35,South,170,0.0,0.0,80,0.00,CLR,,0.00,WeatherDisplay:10.37,2013-08-21 10:39:00,
2013-08-21 05:44:00,67.3,60.9,29.35,South,170,0.0,0.0,80,0.00,CLR,,0.00,WeatherDisplay:10.37,2013-08-21 10:44:00,
2013-08-21 05:49:00,67.6,61.2,29.35,South,170,0.0,0.0,80,0.00,CLR,,0.00,WeatherDisplay:10.37,2013-08-21 10:49:00,
2013-08-21 05:54:00,67.8,61.4,29.35,SSE,167,0.0,0.0,80,0.00,CLR,,0.00,WeatherDisplay:10.37,2013-08-21 10:54:00,
2013-08-21 05:59:00,68.0,61.2,29.35,SSE,165,0.0,0.0,79,0.00,CLR,,0.00,WeatherDisplay:10.37,2013-08-21 10:59:00,
2013-08-21 06:04:00,68.4,61.6,29.35,South,169,0.0,0.0,79,0.00,CLR,,0.00,WeatherDisplay:10.37,2013-08-21 11:04:00,
2013-08-21 06:09:00,68.5,61.8,29.38,South,170,0.0,0.0,79,0.00,CLR,,0.00,WeatherDisplay:10.37,2013-08-21 11:09:00,
2013-08-21 06:14:00,67.8,61.4,29.38,South,170,0.0,0.0,80,0.00,CLR,,0.00,WeatherDisplay:10.37,2013-08-21 11:14:00,
2013-08-21 06:19:00,67.8,61.1,29.38,South,170,0.0,0.0,79,0.00,CLR,,0.00,WeatherDisplay:10.37,2013-08-21 11:19:00,
2013-08-21 06:24:00,68.0,61.2,29.38,South,170,0.0,0.0,79,0.00,CLR,,0.00,WeatherDisplay:10.37,2013-08-21 11:24:00,
2013-08-21 06:29:00,68.0,61.2,29.38,South,170,0.0,0.0,79,0.00,CLR,,0.00,WeatherDisplay:10.37,2013-08-21 11:29:00,
2013-08-21 06:34:00,68.2,61.4,29.38,South,190,0.0,0.0,79,0.00,CLR,,0.00,WeatherDisplay:10.37,2013-08-21 11:34:00,
2013-08-21 06:39:00,68.2,61.4,29.38,SSW,199,0.0,0.0,79,0.00,CLR,,0.00,WeatherDisplay:10.37,2013-08-21 11:39:00,
2013-08-21 06:44:00,68.0,61.2,29.38,SSW,200,0.0,0.0,79,0.00,CLR,,0.00,WeatherDisplay:10.37,2013-08-21 11:44:00,
2013-08-21 06:49:00,68.0,60.9,29.38,SSW,200,0.0,0.0,78,0.00,CLR,,0.00,WeatherDisplay:10.37,2013-08-21 11:49:00,
2013-08-21 06:54:00,68.0,60.9,29.38,SSW,200,0.0,0.0,78,0.00,CLR,,0.00,WeatherDisplay:10.37,2013-08-21 11:54:00,
2013-08-21 06:59:00,68.2,61.1,29.38,SSW,200,0.0,0.0,78,0.00,CLR,,0.00,WeatherDisplay:10.37,2013-08-21 11:59:00,
2013-08-21 07:04:00,68.0,60.9,29.38,South,169,0.0,0.0,78,0.00,CLR,,0.00,WeatherDisplay:10.37,2013-08-21 12:04:00,
2013-08-21 07:09:00,67.8,61.1,29.38,SSE,166,0.0,0.0,79,0.00,CLR,,0.00,WeatherDisplay:10.37,2013-08-21 12:09:00,
2013-08-21 07:14:00,68.4,60.9,29.38,SSE,165,0.0,0.0,77,0.00,CLR,,0.00,WeatherDisplay:10.37,2013-08-21 12:14:00,
2013-08-21 07:19:00,68.7,61.2,29.38,SSE,165,0.0,0.0,77,0.00,CLR,,0.00,WeatherDisplay:10.37,2013-08-21 12:19:00,
2013-08-21 07:24:00,69.3,61.7,29.38,SSE,165,0.0,0.0,77,0.00,CLR,,0.00,WeatherDisplay:10.37,2013-08-21 12:24:00,
2013-08-21 07:29:00,69.4,61.9,29.38,SSE,165,0.0,0.0,77,0.00,CLR,,0.00,WeatherDisplay:10.37,2013-08-21 12:29:00,
2013-08-21 07:34:00,70.3,62.8,29.38,SSE,165,0.0,0.0,77,0.00,CLR,,0.00,WeatherDisplay:10.37,2013-08-21 12:34:00,
2013-08-21 07:39:00,70.3,62.8,29.38,SSE,165,0.0,0.0,77,0.00,CLR,,0.00,WeatherDisplay:10.37,2013-08-21 12:39:00,
2013-08-21 07:44:00,70.3,62.8,29.38,SSE,165,0.0,0.0,77,0.00,CLR,,0.00,WeatherDisplay:10.37,2013-08-21 12:44:00,
2013-08-21 07:49:00,70.3,62.8,29.38,SSE,165,0.0,0.0,77,0.00,CLR,,0.00,WeatherDisplay:10.37,2013-08-21 12:49:00,
2013-08-21 07:54:00,70.3,62.8,29.38,South,169,0.0,0.0,77,0.00,CLR,,0.00,WeatherDisplay:10.37,2013-08-21 12:54:00,
2013-08-21 07:59:00,70.3,62.8,29.38,South,177,0.0,0.0,77,0.00,CLR,,0.00,WeatherDisplay:10.37,2013-08-21 12:59:00,
2013-08-21 08:04:00,70.3,62.8,29.38,SW,214,0.0,0.0,77,0.00,CLR,,0.00,WeatherDisplay:10.37,2013-08-21 13:04:00,
2013-08-21 08:09:00,71.8,63.0,29.38,SW,216,0.0,0.0,74,0.00,CLR,,0.00,WeatherDisplay:10.37,2013-08-21 13:09:00,
2013-08-21 08:14:00,72.1,63.0,29.38,SW,223,1.0,1.0,73,0.00,CLR,,0.00,WeatherDisplay:10.37,2013-08-21 13:14:00,
2013-08-21 08:19:00,72.5,63.7,29.38,SW,216,1.0,1.0,74,0.00,CLR,,0.00,WeatherDisplay:10.37,2013-08-21 13:19:00,
2013-08-21 08:24:00,72.5,63.7,29.38,SSW,210,1.0,1.0,74,0.00,CLR,,0.00,WeatherDisplay:10.37,2013-08-21 13:24:00,
2013-08-21 08:29:00,73.4,63.8,29.38,SSW,209,1.0,1.0,72,0.00,CLR,,0.00,WeatherDisplay:10.37,2013-08-21 13:29:00,
2013-08-21 08:34:00,73.9,64.3,29.38,SSW,207,1.0,1.0,72,0.00,CLR,,0.00,WeatherDisplay:10.37,2013-08-21 13:34:00,
2013-08-21 08:39:00,74.3,64.7,29.38,SSW,203,1.0,1.0,72,0.00,CLR,,0.00,WeatherDisplay:10.37,2013-08-21 13:39:00,
2013-08-21 08:44:00,74.5,64.5,29.38,SSW,207,1.0,1.0,71,0.00,CLR,,0.00,WeatherDisplay:10.37,2013-08-21 13:44:00,
2013-08-21 08:49:00,75.0,65.0,29.38,SSW,208,1.0,1.0,71,0.00,CLR,,0.00,WeatherDisplay:10.37,2013-08-21 13:49:00,
2013-08-21 08:54:00,75.4,64.5,29.38,SSW,207,1.0,1.0,69,0.00,CLR,,0.00,WeatherDisplay:10.37,2013-08-21 13:54:00,
2013-08-21 08:59:00,76.3,65.4,29.38,SSW,213,1.0,1.0,69,0.00,CLR,,0.00,WeatherDisplay:10.37,2013-08-21 13:59:00,
2013-08-21 09:04:00,76.6,65.3,29.41,SSW,210,1.0,1.0,68,0.00,CLR,,0.00,WeatherDisplay:10.37,2013-08-21 14:04:00,
2013-08-21 09:09:00,76.8,65.9,29.41,SSW,208,1.0,1.0,69,0.00,CLR,,0.00,WeatherDisplay:10.37,2013-08-21 14:09:00,
2013-08-21 09:14:00,77.5,66.1,29.41,SSW,207,1.0,1.0,68,0.00,CLR,,0.00,WeatherDisplay:10.37,2013-08-21 14:14:00,
2013-08-21 09:19:00,78.1,66.2,29.41,SSW,207,1.0,1.0,67,0.00,CLR,,0.00,WeatherDisplay:10.37,2013-08-21 14:19:00,
2013-08-21 09:24:00,78.4,66.6,29.41,SSW,208,1.0,1.0,67,0.00,CLR,,0.00,WeatherDisplay:10.37,2013-08-21 14:24:00,
2013-08-21 09:29:00,79.0,66.2,29.41,SSW,208,1.0,1.0,65,0.00,CLR,,0.00,WeatherDisplay:10.37,2013-08-21 14:29:00,
2013-08-21 09:34:00,79.5,66.7,29.41,SSW,205,1.0,1.0,65,0.00,CLR,,0.00,WeatherDisplay:10.37,2013-08-21 14:34:00,
2013-08-21 09:39:00,79.9,66.6,29.41,SSW,205,1.0,1.0,64,0.00,CLR,,0.00,WeatherDisplay:10.37,2013-08-21 14:39:00,
2013-08-21 09:44:00,80.2,66.5,29.41,SSW,203,1.0,1.0,63,0.00,CLR,,0.00,WeatherDisplay:10.37,2013-08-21 14:44:00,
2013-08-21 09:49:00,80.6,65.9,29.41,SSW,206,1.0,1.0,61,0.00,CLR,,0.00,WeatherDisplay:10.37,2013-08-21 14:49:00,
2013-08-21 09:54:00,81.1,66.4,29.41,SSW,210,1.0,1.0,61,0.00,CLR,,0.00,WeatherDisplay:10.37,2013-08-21 14:54:00,
2013-08-21 09:59:00,81.3,66.1,29.41,SW,219,1.0,1.0,60,0.00,CLR,,0.00,WeatherDisplay:10.37,2013-08-21 14:59:00,
2013-08-21 10:04:00,81.7,66.0,29.41,SW,231,1.0,1.0,59,0.00,CLR,,0.00,WeatherDisplay:10.37,2013-08-21 15:04:00,
2013-08-21 10:09:00,81.9,66.1,29.41,SW,235,1.0,1.0,59,0.00,CLR,,0.00,WeatherDisplay:10.37,2013-08-21 15:09:00,
2013-08-21 10:14:00,82.2,66.5,29.41,WSW,245,1.0,1.0,59,0.00,CLR,,0.00,WeatherDisplay:10.37,2013-08-21 15:14:00,
2013-08-21 10:19:00,82.6,66.3,29.41,WSW,249,1.0,1.0,58,0.00,CLR,,0.00,WeatherDisplay:10.37,2013-08-21 15:19:00,
2013-08-21 10:24:00,82.6,65.8,29.41,SW,231,1.0,1.0,57,0.00,CLR,,0.00,WeatherDisplay:10.37,2013-08-21 15:24:00,
2013-08-21 10:29:00,82.6,65.8,29.41,SW,230,1.0,1.0,57,0.00,CLR,,0.00,WeatherDisplay:10.37,2013-08-21 15:29:00,
2013-08-21 10:34:00,82.8,65.5,29.41,SW,225,1.0,2.0,56,0.00,CLR,,0.00,WeatherDisplay:10.37,2013-08-21 15:34:00,
2013-08-21 10:39:00,83.3,66.0,29.41,SW,229,2.0,2.0,56,0.00,CLR,,0.00,WeatherDisplay:10.37,2013-08-21 15:39:00,
2013-08-21 10:44:00,83.8,67.0,29.41,SW,227,2.0,2.0,57,0.00,CLR,,0.00,WeatherDisplay:10.37,2013-08-21 15:44:00,
2013-08-21 10:49:00,84.2,65.8,29.41,WSW,237,2.0,3.0,54,0.00,CLR,,0.00,WeatherDisplay:10.37,2013-08-21 15:49:00,
2013-08-21 10:54:00,83.8,65.9,29.41,SW,232,2.0,3.0,55,0.00,CLR,,0.00,WeatherDisplay:10.37,2013-08-21 15:54:00,
2013-08-21 10:59:00,84.4,66.4,29.41,SW,218,3.0,3.0,55,0.00,CLR,,0.00,WeatherDisplay:10.37,2013-08-21 15:59:00,
2013-08-21 11:04:00,84.4,65.9,29.41,SSW,213,3.0,4.0,54,0.00,CLR,,0.00,WeatherDisplay:10.37,2013-08-21 16:04:00,
2013-08-21 11:09:00,84.6,65.5,29.41,SW,215,5.0,5.0,53,0.00,CLR,,0.00,WeatherDisplay:10.37,2013-08-21 16:09:00,
2013-08-21 11:14:00,84.4,65.4,29.41,SW,219,5.0,5.0,53,0.00,CLR,,0.00,WeatherDisplay:10.37,2013-08-21 16:14:00,
2013-08-21 11:19:00,84.6,65.0,29.41,SW,224,5.0,5.0,52,0.00,CLR,,0.00,WeatherDisplay:10.37,2013-08-21 16:19:00,
2013-08-21 11:24:00,84.7,65.7,29.41,WSW,239,5.0,5.0,53,0.00,CLR,,0.00,WeatherDisplay:10.37,2013-08-21 16:24:00,
2013-08-21 11:29:00,85.1,66.0,29.41,SW,235,5.0,5.0,53,0.00,CLR,,0.00,WeatherDisplay:10.37,2013-08-21 16:29:00,
2013-08-21 11:34:00,85.1,65.5,29.41,SW,226,5.0,5.0,52,0.00,CLR,,0.00,WeatherDisplay:10.37,2013-08-21 16:34:00,
2013-08-21 11:39:00,85.3,65.7,29.41,SW,225,5.0,5.0,52,0.00,CLR,,0.00,WeatherDisplay:10.37,2013-08-21 16:39:00,
2013-08-21 11:49:00,86.0,65.2,29.38,SW,225,6.0,6.0,50,0.00,CLR,,0.00,WeatherDisplay:10.37,2013-08-21 16:49:00,
2013-08-21 11:54:00,86.0,65.2,29.38,SW,227,5.0,6.0,50,0.00,CLR,,0.00,WeatherDisplay:10.37,2013-08-21 16:54:00,
2013-08-21 11:59:00,86.4,64.9,29.41,SW,220,6.0,6.0,49,0.00,CLR,,0.00,WeatherDisplay:10.37,2013-08-21 16:59:00,
2013-08-21 12:04:00,86.0,64.0,29.41,SW,220,6.0,6.0,48,0.00,CLR,,0.00,WeatherDisplay:10.37,2013-08-21 17:04:00,
2013-08-21 12:09:00,86.4,64.4,29.41,SW,223,6.0,6.0,48,0.00,CLR,,0.00,WeatherDisplay:10.37,2013-08-21 17:09:00,
2013-08-21 12:19:00,87.4,65.3,29.38,WSW,243,6.0,6.0,48,0.00,CLR,,0.00,WeatherDisplay:10.37,2013-08-21 17:19:00,
2013-08-21 12:24:00,86.4,63.1,29.38,WSW,254,6.0,6.0,46,0.00,CLR,,0.00,WeatherDisplay:10.37,2013-08-21 17:24:00,
2013-08-21 12:29:00,86.2,64.8,29.38,WSW,243,6.0,6.0,49,0.00,CLR,,0.00,WeatherDisplay:10.37,2013-08-21 17:29:00,
2013-08-21 12:34:00,86.0,65.2,29.38,SW,226,6.0,6.0,50,0.00,SCT,,0.00,WeatherDisplay:10.37,2013-08-21 17:34:00,
2013-08-21 12:39:00,86.7,65.9,29.38,SW,231,6.0,6.0,50,0.00,SCT,,0.00,WeatherDisplay:10.37,2013-08-21 17:39:00,
2013-08-21 12:44:00,86.7,64.7,29.38,WSW,241,6.0,6.0,48,0.00,SCT,,0.00,WeatherDisplay:10.37,2013-08-21 17:44:00,
2013-08-21 12:49:00,86.9,65.4,29.38,WSW,246,6.0,6.0,49,0.00,CLR,,0.00,WeatherDisplay:10.37,2013-08-21 17:49:00,
2013-08-21 12:54:00,86.4,64.4,29.38,WSW,246,5.0,6.0,48,0.00,CLR,,0.00,WeatherDisplay:10.37,2013-08-21 17:54:00,
2013-08-21 12:59:00,86.4,63.1,29.38,WSW,238,5.0,5.0,46,0.00,CLR,,0.00,WeatherDisplay:10.37,2013-08-21 17:59:00,
2013-08-21 13:04:00,87.3,65.2,29.38,SW,232,5.0,6.0,48,0.00,CLR,,0.00,WeatherDisplay:10.37,2013-08-21 18:04:00,
2013-08-21 13:09:00,87.3,64.6,29.38,SW,225,6.0,6.0,47,0.00,CLR,,0.00,WeatherDisplay:10.37,2013-08-21 18:09:00,
2013-08-21 13:14:00,87.4,65.3,29.38,SW,227,6.0,6.0,48,0.00,CLR,,0.00,WeatherDisplay:10.37,2013-08-21 18:14:00,
2013-08-21 13:19:00,87.4,65.3,29.38,WSW,243,6.0,6.0,48,0.00,CLR,,0.00,WeatherDisplay:10.37,2013-08-21 18:19:00,
2013-08-21 13:24:00,87.4,65.3,29.38,WSW,239,6.0,6.0,48,0.00,CLR,,0.00,WeatherDisplay:10.37,2013-08-21 18:24:00,
2013-08-21 13:29:00,87.3,65.8,29.38,SW,226,6.0,6.0,49,0.00,CLR,,0.00,WeatherDisplay:10.37,2013-08-21 18:29:00,
2013-08-21 13:34:00,87.3,64.6,29.38,WSW,242,6.0,6.0,47,0.00,CLR,,0.00,WeatherDisplay:10.37,2013-08-21 18:34:00,
2013-08-21 13:39:00,87.8,64.4,29.38,WSW,237,6.0,6.0,46,0.00,CLR,,0.00,WeatherDisplay:10.37,2013-08-21 18:39:00,
2013-08-21 13:44:00,87.8,63.8,29.38,SW,228,7.0,7.0,45,0.00,CLR,,0.00,WeatherDisplay:10.37,2013-08-21 18:44:00,
2013-08-21 13:49:00,88.2,64.8,29.38,SW,236,6.0,7.0,46,0.00,CLR,,0.00,WeatherDisplay:10.37,2013-08-21 18:49:00,
2013-08-21 13:54:00,88.2,64.8,29.38,WSW,241,6.0,6.0,46,0.00,CLR,,0.00,WeatherDisplay:10.37,2013-08-21 18:54:00,
2013-08-21 13:59:00,87.6,64.3,29.38,SW,227,7.0,7.0,46,0.00,CLR,,0.00,WeatherDisplay:10.37,2013-08-21 18:59:00,
2013-08-21 14:04:00,88.3,65.6,29.35,SW,226,7.0,7.0,47,0.00,SCT,,0.00,WeatherDisplay:10.37,2013-08-21 19:04:00,
2013-08-21 14:09:00,88.0,64.0,29.35,SW,233,7.0,7.0,45,0.00,SCT,,0.00,WeatherDisplay:10.37,2013-08-21 19:09:00,
2013-08-21 14:14:00,88.5,65.7,29.35,SW,232,6.0,7.0,47,0.00,SCT,,0.00,WeatherDisplay:10.37,2013-08-21 19:14:00,
2013-08-21 14:19:00,87.4,64.1,29.35,SW,225,6.0,6.0,46,0.00,SCT,,0.00,WeatherDisplay:10.37,2013-08-21 19:19:00,
2013-08-21 14:24:00,87.6,64.3,29.35,SW,219,6.0,6.0,46,0.00,SCT,,0.00,WeatherDisplay:10.37,2013-08-21 19:24:00,
2013-08-21 14:29:00,87.8,64.4,29.35,SSW,208,6.0,6.0,46,0.00,SCT,,0.00,WeatherDisplay:10.37,2013-08-21 19:29:00,
2013-08-21 14:34:00,87.8,63.2,29.35,SW,230,7.0,7.0,44,0.00,SCT,,0.00,WeatherDisplay:10.37,2013-08-21 19:34:00,
2013-08-21 14:39:00,88.0,64.6,29.35,SW,236,7.0,7.0,46,0.00,SCT,,0.00,WeatherDisplay:10.37,2013-08-21 19:39:00,
2013-08-21 14:44:00,88.0,63.3,29.35,SW,226,7.0,7.0,44,0.00,SCT,,0.00,WeatherDisplay:10.37,2013-08-21 19:44:00,
2013-08-21 14:49:00,88.7,64.6,29.35,SSW,209,7.0,7.0,45,0.00,CLR,,0.00,WeatherDisplay:10.37,2013-08-21 19:49:00,
2013-08-21 14:54:00,88.5,63.8,29.35,SSW,208,7.0,7.0,44,0.00,CLR,,0.00,WeatherDisplay:10.37,2013-08-21 19:54:00,
2013-08-21 14:59:00,88.5,63.8,29.35,SSW,213,7.0,7.0,44,0.00,CLR,,0.00,WeatherDisplay:10.37,2013-08-21 19:59:00,
2013-08-21 15:04:00,88.5,63.2,29.35,SW,234,7.0,7.0,43,0.00,CLR,,0.00,WeatherDisplay:10.37,2013-08-21 20:04:00,
2013-08-21 15:09:00,88.7,64.0,29.35,WSW,244,7.0,7.0,44,0.00,CLR,,0.00,WeatherDisplay:10.37,2013-08-21 20:09:00,
2013-08-21 15:14:00,88.7,64.0,29.35,SW,236,7.0,7.0,44,0.00,CLR,,0.00,WeatherDisplay:10.37,2013-08-21 20:14:00,
2013-08-21 15:19:00,88.9,64.1,29.35,WSW,237,6.0,7.0,44,0.00,CLR,,0.00,WeatherDisplay:10.37,2013-08-21 20:19:00,
2013-08-21 15:24:00,89.4,64.6,29.35,WSW,241,6.0,6.0,44,0.00,CLR,,0.00,WeatherDisplay:10.37,2013-08-21 20:24:00,
2013-08-21 15:29:00,88.9,64.1,29.35,WSW,243,6.0,6.0,44,0.00,CLR,,0.00,WeatherDisplay:10.37,2013-08-21 20:29:00,
2013-08-21 15:34:00,88.5,63.2,29.35,WSW,238,6.0,6.0,43,0.00,CLR,,0.00,WeatherDisplay:10.37,2013-08-21 20:34:00,
2013-08-21 15:39:00,88.5,62.5,29.35,SW,234,5.0,6.0,42,0.00,CLR,,0.00,WeatherDisplay:10.37,2013-08-21 20:39:00,
2013-08-21 15:44:00,89.1,64.3,29.35,SW,236,6.0,6.0,44,0.00,CLR,,0.00,WeatherDisplay:10.37,2013-08-21 20:44:00,
2013-08-21 15:49:00,89.4,64.6,29.35,SW,229,6.0,6.0,44,0.00,CLR,,0.00,WeatherDisplay:10.37,2013-08-21 20:49:00,
2013-08-21 15:54:00,89.4,64.6,29.35,SW,232,6.0,6.0,44,0.00,CLR,,0.00,WeatherDisplay:10.37,2013-08-21 20:54:00,
2013-08-21 15:59:00,89.2,63.8,29.35,WSW,241,6.0,6.0,43,0.00,CLR,,0.00,WeatherDisplay:10.37,2013-08-21 20:59:00,
2013-08-21 16:04:00,88.7,62.7,29.35,SW,233,6.0,6.0,42,0.00,CLR,,0.00,WeatherDisplay:10.37,2013-08-21 21:04:00,
2013-08-21 16:09:00,88.9,64.1,29.35,SW,227,7.0,7.0,44,0.00,CLR,,0.00,WeatherDisplay:10.37,2013-08-21 21:09:00,
2013-08-21 16:14:00,89.1,65.0,29.35,SW,224,7.0,7.0,45,0.00,CLR,,0.00,WeatherDisplay:10.37,2013-08-21 21:14:00,
2013-08-21 16:19:00,88.7,63.3,29.35,SW,230,7.0,7.0,43,0.00,CLR,,0.00,WeatherDisplay:10.37,2013-08-21 21:19:00,
2013-08-21 16:24:00,88.5,63.2,29.35,SW,228,7.0,7.0,43,0.00,CLR,,0.00,WeatherDisplay:10.37,2013-08-21 21:24:00,
2013-08-21 16:29:00,88.7,63.3,29.35,SW,230,6.0,7.0,43,0.00,CLR,,0.00,WeatherDisplay:10.37,2013-08-21 21:29:00,
2013-08-21 16:34:00,88.9,64.8,29.35,SW,224,6.0,6.0,45,0.00,CLR,,0.00,WeatherDisplay:10.37,2013-08-21 21:34:00,
2013-08-21 16:39:00,88.2,63.5,29.35,SW,215,7.0,7.0,44,0.00,CLR,,0.00,WeatherDisplay:10.37,2013-08-21 21:39:00,
2013-08-21 16:44:00,88.3,64.3,29.35,SSW,213,6.0,6.0,45,0.00,CLR,,0.00,WeatherDisplay:10.37,2013-08-21 21:44:00,
2013-08-21 16:49:00,88.0,63.3,29.35,SSW,212,6.0,6.0,44,0.00,CLR,,0.00,WeatherDisplay:10.37,2013-08-21 21:49:00,
2013-08-21 16:54:00,88.0,63.3,29.35,SW,215,6.0,6.0,44,0.00,CLR,,0.00,WeatherDisplay:10.37,2013-08-21 21:54:00,
2013-08-21 16:59:00,88.2,64.1,29.35,SW,215,6.0,6.0,45,0.00,CLR,,0.00,WeatherDisplay:10.37,2013-08-21 21:59:00,
2013-08-21 17:04:00,87.6,63.7,29.32,SW,214,7.0,7.0,45,0.00,CLR,,0.00,WeatherDisplay:10.37,2013-08-21 22:04:00,
2013-08-21 17:09:00,87.4,63.5,29.32,SW,215,7.0,7.0,45,0.00,CLR,,0.00,WeatherDisplay:10.37,2013-08-21 22:09:00,
2013-08-21 17:14:00,87.1,63.2,29.32,SW,215,6.0,6.0,45,0.00,CLR,,0.00,WeatherDisplay:10.37,2013-08-21 22:14:00,
2013-08-21 17:19:00,87.1,64.4,29.32,SSW,206,6.0,6.0,47,0.00,CLR,,0.00,WeatherDisplay:10.37,2013-08-21 22:19:00,
2013-08-21 17:24:00,87.1,64.4,29.32,SSW,205,6.0,6.0,47,0.00,CLR,,0.00,WeatherDisplay:10.37,2013-08-21 22:24:00,
2013-08-21 17:29:00,87.1,65.0,29.32,SSW,208,6.0,6.0,48,0.00,CLR,,0.00,WeatherDisplay:10.37,2013-08-21 22:29:00,
2013-08-21 17:34:00,86.4,63.8,29.32,SSW,210,6.0,6.0,47,0.00,CLR,,0.00,WeatherDisplay:10.37,2013-08-21 22:34:00,
2013-08-21 17:39:00,86.2,63.6,29.32,SSW,211,5.0,6.0,47,0.00,CLR,,0.00,WeatherDisplay:10.37,2013-08-21 22:39:00,
2013-08-21 17:44:00,86.2,64.2,29.32,SW,223,5.0,5.0,48,0.00,CLR,,0.00,WeatherDisplay:10.37,2013-08-21 22:44:00,
2013-08-21 17:49:00,86.0,64.0,29.32,SW,233,3.0,5.0,48,0.00,CLR,,0.00,WeatherDisplay:10.37,2013-08-21 22:49:00,
2013-08-21 17:54:00,86.0,64.6,29.32,SW,228,3.0,4.0,49,0.00,CLR,,0.00,WeatherDisplay:10.37,2013-08-21 22:54:00,
2013-08-21 17:59:00,85.8,65.6,29.32,SW,223,3.0,4.0,51,0.00,CLR,,0.00,WeatherDisplay:10.37,2013-08-21 22:59:00,
2013-08-21 18:04:00,85.5,65.3,29.32,SSW,213,3.0,3.0,51,0.00,CLR,,0.00,WeatherDisplay:10.37,2013-08-21 23:04:00,
2013-08-21 18:09:00,85.5,65.8,29.32,SSW,210,3.0,3.0,52,0.00,CLR,,0.00,WeatherDisplay:10.37,2013-08-21 23:09:00,
2013-08-21 18:19:00,85.3,66.2,29.32,SSW,210,2.0,3.0,53,0.00,CLR,,0.00,WeatherDisplay:10.37,2013-08-21 23:19:00,
2013-08-21 18:24:00,85.3,66.2,29.32,SSW,210,2.0,2.0,53,0.00,CLR,,0.00,WeatherDisplay:10.37,2013-08-21 23:24:00,
2013-08-21 18:29:00,84.9,66.4,29.32,SSW,210,2.0,2.0,54,0.00,CLR,,0.00,WeatherDisplay:10.37,2013-08-21 23:29:00,
2013-08-21 18:34:00,84.7,66.3,29.32,SSW,210,2.0,2.0,54,0.00,CLR,,0.00,WeatherDisplay:10.37,2013-08-21 23:34:00,
2013-08-21 18:39:00,84.6,65.5,29.32,SSW,210,2.0,2.0,53,0.00,CLR,,0.00,WeatherDisplay:10.37,2013-08-21 23:39:00,
2013-08-21 18:44:00,84.4,65.4,29.32,SSW,210,2.0,2.0,53,0.00,CLR,,0.00,WeatherDisplay:10.37,2013-08-21 23:44:00,
2013-08-21 18:49:00,84.0,66.1,29.32,SSW,210,1.0,2.0,55,0.00,CLR,,0.00,WeatherDisplay:10.37,2013-08-21 23:49:00,
2013-08-21 18:54:00,84.0,66.1,29.32,SSW,210,1.0,1.0,55,0.00,CLR,,0.00,WeatherDisplay:10.37,2013-08-21 23:54:00,
2013-08-21 18:59:00,83.7,65.8,29.32,SSW,210,1.0,1.0,55,0.00,CLR,,0.00,WeatherDisplay:10.37,2013-08-21 23:59:00,
2013-08-21 19:04:00,83.3,66.0,29.32,SSW,210,1.0,1.0,56,0.00,CLR,,0.00,WeatherDisplay:10.37,2013-08-22 00:04:00,
2013-08-21 19:09:00,83.1,65.8,29.32,SSW,210,1.0,1.0,56,0.00,CLR,,0.00,WeatherDisplay:10.37,2013-08-22 00:09:00,
2013-08-21 19:14:00,82.9,65.6,29.32,SSW,210,1.0,1.0,56,0.00,CLR,,0.00,WeatherDisplay:10.37,2013-08-22 00:14:00,
2013-08-21 19:19:00,82.6,65.3,29.32,SSW,210,1.0,1.0,56,0.00,CLR,,0.00,WeatherDisplay:10.37,2013-08-22 00:19:00,
2013-08-21 19:24:00,82.0,65.8,29.32,SSW,210,1.0,1.0,58,0.00,CLR,,0.00,WeatherDisplay:10.37,2013-08-22 00:24:00,
2013-08-21 19:29:00,82.0,65.8,29.32,SSW,210,1.0,1.0,58,0.00,CLR,,0.00,WeatherDisplay:10.37,2013-08-22 00:29:00,
2013-08-21 19:34:00,81.5,65.3,29.32,SSW,210,1.0,1.0,58,0.00,CLR,,0.00,WeatherDisplay:10.37,2013-08-22 00:34:00,
2013-08-21 19:39:00,81.5,65.3,29.29,SSW,210,1.0,1.0,58,0.00,CLR,,0.00,WeatherDisplay:10.37,2013-08-22 00:39:00,
2013-08-21 19:44:00,81.1,65.0,29.32,SSW,210,0.0,1.0,58,0.00,CLR,,0.00,WeatherDisplay:10.37,2013-08-22 00:44:00,
2013-08-21 19:49:00,80.8,65.1,29.32,SSW,210,0.0,1.0,59,0.00,CLR,,0.00,WeatherDisplay:10.37,2013-08-22 00:49:00,
2013-08-21 19:54:00,80.8,65.1,29.32,SSW,210,0.0,0.0,59,0.00,CLR,,0.00,WeatherDisplay:10.37,2013-08-22 00:54:00,
2013-08-21 19:59:00,80.4,65.3,29.32,SSW,210,0.0,0.0,60,0.00,CLR,,0.00,WeatherDisplay:10.37,2013-08-22 00:59:00,
2013-08-21 20:04:00,80.1,65.4,29.32,SSW,210,0.0,0.0,61,0.00,CLR,,0.00,WeatherDisplay:10.37,2013-08-22 01:04:00,
2013-08-21 20:09:00,79.9,65.2,29.32,SSW,210,0.0,0.0,61,0.00,CLR,,0.00,WeatherDisplay:10.37,2013-08-22 01:09:00,
2013-08-21 20:14:00,79.9,65.2,29.32,SSW,210,0.0,0.0,61,0.00,CLR,,0.00,WeatherDisplay:10.37,2013-08-22 01:14:00,
2013-08-21 20:19:00,79.7,64.6,29.32,SSW,210,0.0,1.0,60,0.00,CLR,,0.00,WeatherDisplay:10.37,2013-08-22 01:19:00,
2013-08-21 20:24:00,79.5,64.4,29.32,SSW,210,1.0,1.0,60,0.00,CLR,,0.00,WeatherDisplay:10.37,2013-08-22 01:24:00,
2013-08-21 20:29:00,79.7,65.1,29.32,SSW,210,1.0,1.0,61,0.00,CLR,,0.00,WeatherDisplay:10.37,2013-08-22 01:29:00,
2013-08-21 20:34:00,79.3,64.7,29.32,SSW,210,1.0,1.0,61,0.00,CLR,,0.00,WeatherDisplay:10.37,2013-08-22 01:34:00,
2013-08-21 20:39:00,79.2,64.6,29.32,SSW,210,1.0,1.0,61,0.00,CLR,,0.00,WeatherDisplay:10.37,2013-08-22 01:39:00,
2013-08-21 20:44:00,79.0,64.4,29.32,SSW,210,0.0,1.0,61,0.00,CLR,,0.00,WeatherDisplay:10.37,2013-08-22 01:44:00,
2013-08-21 20:49:00,78.8,64.2,29.32,SSW,210,0.0,1.0,61,0.00,CLR,,0.00,WeatherDisplay:10.37,2013-08-22 01:49:00,
2013-08-21 20:54:00,78.6,64.5,29.32,SSW,210,0.0,0.0,62,0.00,CLR,,0.00,WeatherDisplay:10.37,2013-08-22 01:54:00,
2013-08-21 20:59:00,78.6,64.5,29.32,SSW,210,0.0,0.0,62,0.00,CLR,,0.00,WeatherDisplay:10.37,2013-08-22 01:59:00,
2013-08-21 21:04:00,78.3,64.2,29.32,SSW,210,0.0,0.0,62,0.00,CLR,,0.00,WeatherDisplay:10.37,2013-08-22 02:04:00,
2013-08-21 21:09:00,77.9,63.8,29.32,SSW,210,0.0,0.0,62,0.00,CLR,,0.00,WeatherDisplay:10.37,2013-08-22 02:09:00,
2013-08-21 21:14:00,77.4,63.8,29.32,SSW,210,0.0,0.0,63,0.00,CLR,,0.00,WeatherDisplay:10.37,2013-08-22 02:14:00,
2013-08-21 21:19:00,77.2,64.1,29.32,SSW,210,0.0,0.0,64,0.00,CLR,,0.00,WeatherDisplay:10.37,2013-08-22 02:19:00,
2013-08-21 21:24:00,77.0,63.9,29.35,SSW,210,0.0,0.0,64,0.00,CLR,,0.00,WeatherDisplay:10.37,2013-08-22 02:24:00,
2013-08-21 21:29:00,76.5,63.8,29.35,SSW,210,0.0,0.0,65,0.00,CLR,,0.00,WeatherDisplay:10.37,2013-08-22 02:29:00,
2013-08-21 21:34:00,75.7,63.1,29.35,SSW,210,0.0,0.0,65,0.00,CLR,,0.00,WeatherDisplay:10.37,2013-08-22 02:34:00,
2013-08-21 21:39:00,75.4,62.8,29.35,SSW,210,0.0,0.0,65,0.00,CLR,,0.00,WeatherDisplay:10.37,2013-08-22 02:39:00,
2013-08-21 21:44:00,74.8,63.1,29.35,SSW,210,0.0,0.0,67,0.00,CLR,,0.00,WeatherDisplay:10.37,2013-08-22 02:44:00,
2013-08-21 21:49:00,74.7,63.0,29.35,SSW,210,0.0,0.0,67,0.00,CLR,,0.00,WeatherDisplay:10.37,2013-08-22 02:49:00,
2013-08-21 21:54:00,74.5,62.8,29.35,SSW,210,0.0,0.0,67,0.00,CLR,,0.00,WeatherDisplay:10.37,2013-08-22 02:54:00,
2013-08-21 21:59:00,74.5,63.2,29.35,SSW,210,0.0,0.0,68,0.00,CLR,,0.00,WeatherDisplay:10.37,2013-08-22 02:59:00,
2013-08-21 22:04:00,74.7,63.8,29.35,SSW,210,0.0,0.0,69,0.00,CLR,,0.00,WeatherDisplay:10.37,2013-08-22 03:04:00,
2013-08-21 22:09:00,74.7,64.2,29.35,SSW,210,0.0,0.0,70,0.00,CLR,,0.00,WeatherDisplay:10.37,2013-08-22 03:09:00,
2013-08-21 22:14:00,74.3,63.9,29.35,SSW,210,0.0,0.0,70,0.00,CLR,,0.00,WeatherDisplay:10.37,2013-08-22 03:14:00,
2013-08-21 22:19:00,73.9,63.5,29.35,SSW,210,0.0,0.0,70,0.00,CLR,,0.00,WeatherDisplay:10.37,2013-08-22 03:19:00,
2013-08-21 22:24:00,73.8,63.4,29.35,SSW,210,0.0,0.0,70,0.00,CLR,,0.00,WeatherDisplay:10.37,2013-08-22 03:24:00,
2013-08-21 22:29:00,73.6,63.6,29.35,SSW,210,0.0,0.0,71,0.00,CLR,,0.00,WeatherDisplay:10.37,2013-08-22 03:29:00,
2013-08-21 22:34:00,73.6,63.6,29.35,SSW,202,0.0,0.0,71,0.00,CLR,,0.00,WeatherDisplay:10.37,2013-08-22 03:34:00,
2013-08-21 22:39:00,73.2,63.6,29.35,SSW,192,0.0,0.0,72,0.00,CLR,,0.00,WeatherDisplay:10.37,2013-08-22 03:39:00,
2013-08-21 22:44:00,73.0,63.5,29.35,South,180,0.0,0.0,72,0.00,CLR,,0.00,WeatherDisplay:10.37,2013-08-22 03:44:00,
2013-08-21 22:49:00,73.0,63.9,29.35,South,180,0.0,0.0,73,0.00,CLR,,0.00,WeatherDisplay:10.37,2013-08-22 03:49:00,
2013-08-21 22:54:00,72.9,63.7,29.35,South,180,0.0,0.0,73,0.00,CLR,,0.00,WeatherDisplay:10.37,2013-08-22 03:54:00,
2013-08-21 22:59:00,72.5,63.0,29.35,South,180,0.0,0.0,72,0.00,CLR,,0.00,WeatherDisplay:10.37,2013-08-22 03:59:00,
2013-08-21 23:04:00,72.5,63.0,29.35,South,180,0.0,0.0,72,0.00,CLR,,0.00,WeatherDisplay:10.37,2013-08-22 04:04:00,
2013-08-21 23:09:00,72.5,63.4,29.35,South,180,0.0,0.0,73,0.00,CLR,,0.00,WeatherDisplay:10.37,2013-08-22 04:09:00,
2013-08-21 23:14:00,72.5,63.4,29.35,South,180,0.0,0.0,73,0.00,CLR,,0.00,WeatherDisplay:10.37,2013-08-22 04:14:00,
2013-08-21 23:19:00,72.5,63.4,29.35,South,180,0.0,0.0,73,0.00,CLR,,0.00,WeatherDisplay:10.37,2013-08-22 04:19:00,
2013-08-21 23:24:00,72.5,63.4,29.35,South,180,0.0,0.0,73,0.00,CLR,,0.00,WeatherDisplay:10.37,2013-08-22 04:24:00,
2013-08-21 23:29:00,72.5,63.4,29.35,South,180,0.0,0.0,73,0.00,CLR,,0.00,WeatherDisplay:10.37,2013-08-22 04:29:00,
2013-08-21 23:34:00,72.5,63.4,29.35,South,180,0.0,0.0,73,0.00,CLR,,0.00,WeatherDisplay:10.37,2013-08-22 04:34:00,
2013-08-21 23:39:00,72.5,63.4,29.35,South,180,0.0,0.0,73,0.00,CLR,,0.00,WeatherDisplay:10.37,2013-08-22 04:39:00,
2013-08-21 23:44:00,72.3,63.2,29.35,South,180,0.0,0.0,73,0.00,CLR,,0.00,WeatherDisplay:10.37,2013-08-22 04:44:00,
2013-08-21 23:49:00,72.1,63.0,29.35,South,180,0.0,0.0,73,0.00,CLR,,0.00,WeatherDisplay:10.37,2013-08-22 04:49:00,
2013-08-21 23:54:00,72.0,62.8,29.35,South,180,0.0,0.0,73,0.00,CLR,,0.00,WeatherDisplay:10.37,2013-08-22 04:54:00,
2013-08-21 23:59:00,72.0,62.8,29.35,South,180,0.0,0.0,73,0.00,CLR,,0.00,WeatherDisplay:10.37,2013-08-22 04:59:00,